Castro Alves, Brazil
Current Conditions -  °F | °C
As of 5:00 PM on Friday 19 Dec 2014 (Local Time) from SBSV Reporting Station
Broken Clouds Broken Clouds  
Wind Chill: 79°   Ceiling: 1500
Heat Index: 82°   Visibility: 6mi
Dew Point: 73°   Wind: 13mph
Humidity: 83%   Direction: 60°ENE
Pressure: 29.83"   Gusts: NA
Location:  12.77°S, 39.43°W
Report Text: SBSV 192000Z 06011KT 9999 BKN015 FEW020TCU BKN070 26/23 Q1010
Loading
Personal Weather Stations






























Interactive Weather Map New forecast layout! Learn more

10-Day Weather Forecast

Advertisements
Track Severe Weather on mobile